sensor_id;sensor_type;location;lat;lon;timestamp;P1;durP1;ratioP1;P2;durP2;ratioP2
45694;SDS011;31408;45.468;9.124;2024-01-16T00:02:16;37.90;;;18.90;;
45694;SDS011;31408;45.468;9.124;2024-01-16T00:04:41;40.10;;;18.92;;
45694;SDS011;31408;45.468;9.124;2024-01-16T00:07:06;38.75;;;22.00;;
45694;SDS011;31408;45.468;9.124;2024-01-16T00:09:32;46.35;;;21.63;;
45694;SDS011;31408;45.468;9.124;2024-01-16T00:12:03;47.78;;;21.02;;
45694;SDS011;31408;45.468;9.124;2024-01-16T00:14:34;40.03;;;20.00;;
45694;SDS011;31408;45.468;9.124;2024-01-16T00:16:59;40.13;;;18.55;;
45694;SDS011;31408;45.468;9.124;2024-01-16T00:19:25;40.90;;;18.70;;
45694;SDS011;31408;45.468;9.124;2024-01-16T00:21:50;41.20;;;20.42;;
45694;SDS011;31408;45.468;9.124;2024-01-16T00:24:16;39.80;;;19.30;;
45694;SDS011;31408;45.468;9.124;2024-01-16T00:26:42;40.28;;;19.52;;
45694;SDS011;31408;45.468;9.124;2024-01-16T00:29:07;38.28;;;18.00;;
45694;SDS011;31408;45.468;9.124;2024-01-16T00:31:34;39.80;;;20.73;;
45694;SDS011;31408;45.468;9.124;2024-01-16T00:33:59;50.67;;;24.48;;
45694;SDS011;31408;45.468;9.124;2024-01-16T00:36:25;41.53;;;21.00;;
45694;SDS011;31408;45.468;9.124;2024-01-16T00:38:50;52.35;;;23.35;;
45694;SDS011;31408;45.468;9.124;2024-01-16T00:41:15;44.17;;;22.20;;
45694;SDS011;31408;45.468;9.124;2024-01-16T00:43:42;45.38;;;22.05;;
45694;SDS011;31408;45.468;9.124;2024-01-16T00:46:08;45.83;;;22.00;;
45694;SDS011;31408;45.468;9.124;2024-01-16T00:48:33;41.20;;;20.85;;
45694;SDS011;31408;45.468;9.124;2024-01-16T00:50:58;45.40;;;23.25;;
45694;SDS011;31408;45.468;9.124;2024-01-16T00:53:26;38.40;;;20.08;;
45694;SDS011;31408;45.468;9.124;2024-01-16T00:55:51;47.17;;;24.15;;
45694;SDS011;31408;45.468;9.124;2024-01-16T00:58:19;41.60;;;21.67;;
45694;SDS011;31408;45.468;9.124;2024-01-16T01:00:44;45.88;;;23.30;;
45694;SDS011;31408;45.468;9.124;2024-01-16T01:03:10;44.40;;;22.25;;
45694;SDS011;31408;45.468;9.124;2024-01-16T01:05:35;51.58;;;22.77;;
45694;SDS011;31408;45.468;9.124;2024-01-16T01:08:00;45.25;;;23.30;;
45694;SDS011;31408;45.468;9.124;2024-01-16T01:10:25;42.22;;;23.65;;
45694;SDS011;31408;45.468;9.124;2024-01-16T01:12:51;55.45;;;26.17;;
45694;SDS011;31408;45.468;9.124;2024-01-16T01:15:19;48.38;;;24.58;;
45694;SDS011;31408;45.468;9.124;2024-01-16T01:17:45;52.17;;;27.90;;
45694;SDS011;31408;45.468;9.124;2024-01-16T01:20:12;49.05;;;26.63;;
45694;SDS011;31408;45.468;9.124;2024-01-16T01:22:37;52.95;;;25.85;;
45694;SDS011;31408;45.468;9.124;2024-01-16T01:25:03;51.47;;;26.30;;
45694;SDS011;31408;45.468;9.124;2024-01-16T01:27:28;52.05;;;27.10;;
45694;SDS011;31408;45.468;9.124;2024-01-16T01:29:54;49.03;;;24.95;;
45694;SDS011;31408;45.468;9.124;2024-01-16T01:32:24;52.15;;;27.88;;
45694;SDS011;31408;45.468;9.124;2024-01-16T01:34:49;50.78;;;27.40;;
45694;SDS011;31408;45.468;9.124;2024-01-16T01:37:14;57.08;;;28.83;;
45694;SDS011;31408;45.468;9.124;2024-01-16T01:39:40;48.15;;;26.30;;
45694;SDS011;31408;45.468;9.124;2024-01-16T01:42:06;52.20;;;26.63;;
45694;SDS011;31408;45.468;9.124;2024-01-16T01:44:31;60.15;;;31.25;;
45694;SDS011;31408;45.468;9.124;2024-01-16T01:46:56;53.42;;;28.52;;
45694;SDS011;31408;45.468;9.124;2024-01-16T01:49:22;53.05;;;30.00;;
45694;SDS011;31408;45.468;9.124;2024-01-16T01:51:48;52.30;;;30.33;;
45694;SDS011;31408;45.468;9.124;2024-01-16T01:54:13;56.83;;;33.53;;
45694;SDS011;31408;45.468;9.124;2024-01-16T01:56:42;52.80;;;32.17;;
45694;SDS011;31408;45.468;9.124;2024-01-16T01:59:07;61.80;;;30.92;;
45694;SDS011;31408;45.468;9.124;2024-01-16T02:01:33;61.83;;;30.42;;
45694;SDS011;31408;45.468;9.124;2024-01-16T02:03:59;50.50;;;28.52;;
45694;SDS011;31408;45.468;9.124;2024-01-16T02:06:25;55.20;;;32.63;;
45694;SDS011;31408;45.468;9.124;2024-01-16T02:08:50;58.30;;;30.23;;
45694;SDS011;31408;45.468;9.124;2024-01-16T02:11:16;55.50;;;30.20;;
45694;SDS011;31408;45.468;9.124;2024-01-16T02:13:41;59.88;;;30.60;;
45694;SDS011;31408;45.468;9.124;2024-01-16T02:16:17;52.63;;;31.58;;
45694;SDS011;31408;45.468;9.124;2024-01-16T02:18:42;58.45;;;32.03;;
45694;SDS011;31408;45.468;9.124;2024-01-16T02:21:08;52.85;;;29.85;;
45694;SDS011;31408;45.468;9.124;2024-01-16T02:23:33;49.05;;;28.83;;
45694;SDS011;31408;45.468;9.124;2024-01-16T02:25:59;54.63;;;29.77;;
45694;SDS011;31408;45.468;9.124;2024-01-16T02:28:25;54.40;;;29.60;;
45694;SDS011;31408;45.468;9.124;2024-01-16T02:30:50;53.45;;;30.85;;
45694;SDS011;31408;45.468;9.124;2024-01-16T02:33:16;64.88;;;34.80;;
45694;SDS011;31408;45.468;9.124;2024-01-16T02:35:41;60.97;;;34.80;;
45694;SDS011;31408;45.468;9.124;2024-01-16T02:38:06;69.35;;;37.88;;
45694;SDS011;31408;45.468;9.124;2024-01-16T02:40:32;58.75;;;32.30;;
45694;SDS011;31408;45.468;9.124;2024-01-16T02:42:57;56.45;;;31.98;;
45694;SDS011;31408;45.468;9.124;2024-01-16T02:45:22;58.83;;;35.03;;
45694;SDS011;31408;45.468;9.124;2024-01-16T02:47:48;64.97;;;33.38;;
45694;SDS011;31408;45.468;9.124;2024-01-16T02:50:13;55.38;;;31.17;;
45694;SDS011;31408;45.468;9.124;2024-01-16T02:52:39;62.35;;;36.80;;
45694;SDS011;31408;45.468;9.124;2024-01-16T02:55:04;57.55;;;33.38;;
45694;SDS011;31408;45.468;9.124;2024-01-16T02:57:30;61.45;;;34.67;;
45694;SDS011;31408;45.468;9.124;2024-01-16T02:59:55;66.85;;;36.80;;
45694;SDS011;31408;45.468;9.124;2024-01-16T03:02:21;74.25;;;37.78;;
45694;SDS011;31408;45.468;9.124;2024-01-16T03:04:48;58.28;;;34.42;;
45694;SDS011;31408;45.468;9.124;2024-01-16T03:07:13;60.05;;;32.20;;
45694;SDS011;31408;45.468;9.124;2024-01-16T03:09:38;57.50;;;33.75;;
45694;SDS011;31408;45.468;9.124;2024-01-16T03:12:04;57.13;;;32.45;;
45694;SDS011;31408;45.468;9.124;2024-01-16T03:14:29;68.95;;;34.58;;
45694;SDS011;31408;45.468;9.124;2024-01-16T03:17:00;66.15;;;38.13;;
45694;SDS011;31408;45.468;9.124;2024-01-16T03:19:26;68.68;;;37.90;;
45694;SDS011;31408;45.468;9.124;2024-01-16T03:21:51;61.15;;;37.15;;
45694;SDS011;31408;45.468;9.124;2024-01-16T03:24:17;70.18;;;36.80;;
45694;SDS011;31408;45.468;9.124;2024-01-16T03:26:42;64.25;;;35.92;;
45694;SDS011;31408;45.468;9.124;2024-01-16T03:29:10;63.67;;;34.72;;
45694;SDS011;31408;45.468;9.124;2024-01-16T03:31:36;65.68;;;37.13;;
45694;SDS011;31408;45.468;9.124;2024-01-16T03:34:01;63.78;;;36.55;;
45694;SDS011;31408;45.468;9.124;2024-01-16T03:36:27;66.00;;;40.25;;
45694;SDS011;31408;45.468;9.124;2024-01-16T03:38:52;66.57;;;36.22;;
45694;SDS011;31408;45.468;9.124;2024-01-16T03:41:23;67.22;;;37.08;;
45694;SDS011;31408;45.468;9.124;2024-01-16T03:43:48;66.93;;;39.05;;
45694;SDS011;31408;45.468;9.124;2024-01-16T03:46:13;63.30;;;37.28;;
45694;SDS011;31408;45.468;9.124;2024-01-16T03:48:39;71.25;;;38.15;;
45694;SDS011;31408;45.468;9.124;2024-01-16T03:51:04;66.05;;;38.55;;
45694;SDS011;31408;45.468;9.124;2024-01-16T03:53:30;72.07;;;37.40;;
45694;SDS011;31408;45.468;9.124;2024-01-16T03:55:56;71.32;;;38.47;;
45694;SDS011;31408;45.468;9.124;2024-01-16T03:58:21;69.57;;;38.05;;
45694;SDS011;31408;45.468;9.124;2024-01-16T04:00:47;76.65;;;38.08;;
45694;SDS011;31408;45.468;9.124;2024-01-16T04:03:15;70.97;;;36.28;;
45694;SDS011;31408;45.468;9.124;2024-01-16T04:05:41;63.88;;;37.72;;
45694;SDS011;31408;45.468;9.124;2024-01-16T04:08:06;61.75;;;34.97;;
45694;SDS011;31408;45.468;9.124;2024-01-16T04:10:31;67.07;;;37.30;;
45694;SDS011;31408;45.468;9.124;2024-01-16T04:12:59;71.28;;;34.67;;
45694;SDS011;31408;45.468;9.124;2024-01-16T04:15:25;67.07;;;34.40;;
45694;SDS011;31408;45.468;9.124;2024-01-16T04:17:50;66.97;;;39.03;;
45694;SDS011;31408;45.468;9.124;2024-01-16T04:20:15;72.18;;;39.80;;
45694;SDS011;31408;45.468;9.124;2024-01-16T04:22:41;72.57;;;38.00;;
45694;SDS011;31408;45.468;9.124;2024-01-16T04:25:06;60.13;;;35.08;;
45694;SDS011;31408;45.468;9.124;2024-01-16T04:27:32;71.25;;;36.70;;
45694;SDS011;31408;45.468;9.124;2024-01-16T04:29:57;72.50;;;37.33;;
45694;SDS011;31408;45.468;9.124;2024-01-16T04:32:23;66.90;;;36.88;;
45694;SDS011;31408;45.468;9.124;2024-01-16T04:34:48;61.08;;;37.15;;
45694;SDS011;31408;45.468;9.124;2024-01-16T04:37:14;67.55;;;36.30;;
45694;SDS011;31408;45.468;9.124;2024-01-16T04:39:39;66.10;;;36.67;;
45694;SDS011;31408;45.468;9.124;2024-01-16T04:42:04;79.13;;;39.50;;
45694;SDS011;31408;45.468;9.124;2024-01-16T04:44:30;63.38;;;35.05;;
45694;SDS011;31408;45.468;9.124;2024-01-16T04:46:55;65.40;;;36.20;;
45694;SDS011;31408;45.468;9.124;2024-01-16T04:49:20;62.75;;;33.20;;
45694;SDS011;31408;45.468;9.124;2024-01-16T04:51:46;69.07;;;38.10;;
45694;SDS011;31408;45.468;9.124;2024-01-16T04:54:12;59.08;;;35.13;;
45694;SDS011;31408;45.468;9.124;2024-01-16T04:56:37;61.53;;;32.88;;
45694;SDS011;31408;45.468;9.124;2024-01-16T04:59:03;62.28;;;34.33;;
45694;SDS011;31408;45.468;9.124;2024-01-16T05:01:28;66.95;;;35.65;;
45694;SDS011;31408;45.468;9.124;2024-01-16T05:03:54;65.28;;;32.42;;
45694;SDS011;31408;45.468;9.124;2024-01-16T05:06:19;55.20;;;32.25;;
45694;SDS011;31408;45.468;9.124;2024-01-16T05:08:45;65.75;;;30.80;;
45694;SDS011;31408;45.468;9.124;2024-01-16T05:11:10;66.10;;;35.45;;
45694;SDS011;31408;45.468;9.124;2024-01-16T05:13:36;67.75;;;32.63;;
45694;SDS011;31408;45.468;9.124;2024-01-16T05:16:01;58.47;;;30.95;;
45694;SDS011;31408;45.468;9.124;2024-01-16T05:18:27;60.40;;;33.58;;
45694;SDS011;31408;45.468;9.124;2024-01-16T05:20:52;64.25;;;30.67;;
45694;SDS011;31408;45.468;9.124;2024-01-16T05:23:19;60.15;;;30.95;;
45694;SDS011;31408;45.468;9.124;2024-01-16T05:25:44;58.45;;;31.15;;
45694;SDS011;31408;45.468;9.124;2024-01-16T05:28:09;53.63;;;29.60;;
45694;SDS011;31408;45.468;9.124;2024-01-16T05:30:35;60.63;;;31.35;;
45694;SDS011;31408;45.468;9.124;2024-01-16T05:33:00;57.10;;;29.65;;
45694;SDS011;31408;45.468;9.124;2024-01-16T05:35:29;55.20;;;28.40;;
45694;SDS011;31408;45.468;9.124;2024-01-16T05:37:55;52.58;;;29.80;;
45694;SDS011;31408;45.468;9.124;2024-01-16T05:40:21;54.33;;;30.77;;
45694;SDS011;31408;45.468;9.124;2024-01-16T05:42:47;50.75;;;28.52;;
45694;SDS011;31408;45.468;9.124;2024-01-16T05:45:13;59.00;;;28.10;;
45694;SDS011;31408;45.468;9.124;2024-01-16T05:47:38;52.50;;;27.98;;
45694;SDS011;31408;45.468;9.124;2024-01-16T05:50:04;56.78;;;28.10;;
45694;SDS011;31408;45.468;9.124;2024-01-16T05:52:30;51.30;;;28.05;;
45694;SDS011;31408;45.468;9.124;2024-01-16T05:54:55;51.15;;;28.85;;
45694;SDS011;31408;45.468;9.124;2024-01-16T05:57:22;53.63;;;27.13;;
45694;SDS011;31408;45.468;9.124;2024-01-16T05:59:48;57.53;;;28.90;;
45694;SDS011;31408;45.468;9.124;2024-01-16T06:02:13;60.20;;;27.35;;
45694;SDS011;31408;45.468;9.124;2024-01-16T06:04:39;51.58;;;26.50;;
45694;SDS011;31408;45.468;9.124;2024-01-16T06:07:04;63.88;;;29.70;;
45694;SDS011;31408;45.468;9.124;2024-01-16T06:09:32;54.75;;;27.38;;
45694;SDS011;31408;45.468;9.124;2024-01-16T06:11:57;53.53;;;27.63;;
45694;SDS011;31408;45.468;9.124;2024-01-16T06:14:23;55.58;;;31.35;;
45694;SDS011;31408;45.468;9.124;2024-01-16T06:16:48;52.13;;;27.33;;
45694;SDS011;31408;45.468;9.124;2024-01-16T06:19:14;52.63;;;23.70;;
45694;SDS011;31408;45.468;9.124;2024-01-16T06:21:41;48.10;;;24.80;;
45694;SDS011;31408;45.468;9.124;2024-01-16T06:24:06;50.05;;;25.58;;
45694;SDS011;31408;45.468;9.124;2024-01-16T06:26:32;48.08;;;25.42;;
45694;SDS011;31408;45.468;9.124;2024-01-16T06:28:58;47.00;;;25.73;;
45694;SDS011;31408;45.468;9.124;2024-01-16T06:31:23;53.13;;;28.83;;
45694;SDS011;31408;45.468;9.124;2024-01-16T06:33:51;50.05;;;26.75;;
45694;SDS011;31408;45.468;9.124;2024-01-16T06:36:16;49.85;;;26.63;;
45694;SDS011;31408;45.468;9.124;2024-01-16T06:38:42;48.97;;;24.15;;
45694;SDS011;31408;45.468;9.124;2024-01-16T06:41:07;43.58;;;24.00;;
45694;SDS011;31408;45.468;9.124;2024-01-16T06:43:33;45.03;;;24.17;;
45694;SDS011;31408;45.468;9.124;2024-01-16T06:45:58;44.20;;;24.13;;
45694;SDS011;31408;45.468;9.124;2024-01-16T06:48:24;54.28;;;25.27;;
45694;SDS011;31408;45.468;9.124;2024-01-16T06:50:49;51.10;;;26.10;;
45694;SDS011;31408;45.468;9.124;2024-01-16T06:53:14;52.22;;;27.73;;
45694;SDS011;31408;45.468;9.124;2024-01-16T06:55:40;52.97;;;28.13;;
45694;SDS011;31408;45.468;9.124;2024-01-16T06:58:05;52.88;;;28.13;;
45694;SDS011;31408;45.468;9.124;2024-01-16T07:00:31;55.03;;;27.70;;
45694;SDS011;31408;45.468;9.124;2024-01-16T07:02:56;50.97;;;25.90;;
45694;SDS011;31408;45.468;9.124;2024-01-16T07:05:22;55.10;;;26.35;;
45694;SDS011;31408;45.468;9.124;2024-01-16T07:07:47;51.00;;;27.25;;
45694;SDS011;31408;45.468;9.124;2024-01-16T07:10:12;51.42;;;28.80;;
45694;SDS011;31408;45.468;9.124;2024-01-16T07:12:38;49.00;;;27.02;;
45694;SDS011;31408;45.468;9.124;2024-01-16T07:15:04;50.58;;;31.35;;
45694;SDS011;31408;45.468;9.124;2024-01-16T07:17:29;60.50;;;31.50;;
45694;SDS011;31408;45.468;9.124;2024-01-16T07:19:55;56.08;;;29.50;;
45694;SDS011;31408;45.468;9.124;2024-01-16T07:22:20;50.67;;;25.80;;
45694;SDS011;31408;45.468;9.124;2024-01-16T07:24:45;49.80;;;27.88;;
45694;SDS011;31408;45.468;9.124;2024-01-16T07:27:11;49.50;;;26.40;;
45694;SDS011;31408;45.468;9.124;2024-01-16T07:29:36;54.17;;;27.27;;
45694;SDS011;31408;45.468;9.124;2024-01-16T07:32:01;52.22;;;27.40;;
45694;SDS011;31408;45.468;9.124;2024-01-16T07:34:27;50.05;;;26.90;;
45694;SDS011;31408;45.468;9.124;2024-01-16T07:36:52;51.58;;;28.20;;
45694;SDS011;31408;45.468;9.124;2024-01-16T07:39:19;46.33;;;28.58;;
45694;SDS011;31408;45.468;9.124;2024-01-16T07:41:44;51.40;;;27.55;;
45694;SDS011;31408;45.468;9.124;2024-01-16T07:44:09;54.92;;;28.70;;
45694;SDS011;31408;45.468;9.124;2024-01-16T07:46:35;52.45;;;28.90;;
45694;SDS011;31408;45.468;9.124;2024-01-16T07:49:00;50.65;;;25.73;;
45694;SDS011;31408;45.468;9.124;2024-01-16T07:51:25;48.42;;;26.08;;
45694;SDS011;31408;45.468;9.124;2024-01-16T07:53:58;53.72;;;27.55;;
45694;SDS011;31408;45.468;9.124;2024-01-16T07:56:29;45.80;;;24.35;;
45694;SDS011;31408;45.468;9.124;2024-01-16T07:58:54;50.88;;;26.88;;
45694;SDS011;31408;45.468;9.124;2024-01-16T08:01:20;46.95;;;24.27;;
45694;SDS011;31408;45.468;9.124;2024-01-16T08:03:46;66.88;;;41.05;;
45694;SDS011;31408;45.468;9.124;2024-01-16T08:06:11;67.55;;;43.83;;
45694;SDS011;31408;45.468;9.124;2024-01-16T08:08:36;61.15;;;42.33;;
45694;SDS011;31408;45.468;9.124;2024-01-16T08:11:02;64.85;;;38.45;;
45694;SDS011;31408;45.468;9.124;2024-01-16T08:13:27;59.00;;;36.53;;
45694;SDS011;31408;45.468;9.124;2024-01-16T08:15:53;48.67;;;27.77;;
45694;SDS011;31408;45.468;9.124;2024-01-16T08:18:18;43.97;;;24.55;;
45694;SDS011;31408;45.468;9.124;2024-01-16T08:20:44;40.25;;;22.08;;
45694;SDS011;31408;45.468;9.124;2024-01-16T08:23:09;52.88;;;23.02;;
45694;SDS011;31408;45.468;9.124;2024-01-16T08:25:34;47.28;;;24.25;;
45694;SDS011;31408;45.468;9.124;2024-01-16T08:28:00;49.05;;;23.58;;
45694;SDS011;31408;45.468;9.124;2024-01-16T08:30:26;43.03;;;24.60;;
45694;SDS011;31408;45.468;9.124;2024-01-16T08:32:51;40.53;;;23.35;;
45694;SDS011;31408;45.468;9.124;2024-01-16T08:35:16;44.10;;;23.90;;
45694;SDS011;31408;45.468;9.124;2024-01-16T08:37:42;48.90;;;26.10;;
45694;SDS011;31408;45.468;9.124;2024-01-16T08:40:07;46.80;;;24.00;;
45694;SDS011;31408;45.468;9.124;2024-01-16T08:42:32;47.58;;;23.95;;
45694;SDS011;31408;45.468;9.124;2024-01-16T08:44:58;47.20;;;24.50;;
45694;SDS011;31408;45.468;9.124;2024-01-16T08:47:24;45.42;;;24.67;;
45694;SDS011;31408;45.468;9.124;2024-01-16T08:49:49;47.17;;;26.00;;
45694;SDS011;31408;45.468;9.124;2024-01-16T08:52:15;43.35;;;26.83;;
45694;SDS011;31408;45.468;9.124;2024-01-16T08:54:41;42.95;;;24.35;;
45694;SDS011;31408;45.468;9.124;2024-01-16T08:57:06;44.50;;;25.08;;
45694;SDS011;31408;45.468;9.124;2024-01-16T08:59:31;44.55;;;25.15;;
45694;SDS011;31408;45.468;9.124;2024-01-16T09:01:57;44.42;;;25.30;;
45694;SDS011;31408;45.468;9.124;2024-01-16T09:04:23;45.47;;;23.50;;
45694;SDS011;31408;45.468;9.124;2024-01-16T09:06:48;47.10;;;25.55;;
45694;SDS011;31408;45.468;9.124;2024-01-16T09:09:13;43.33;;;25.00;;
45694;SDS011;31408;45.468;9.124;2024-01-16T09:11:41;44.88;;;25.63;;
45694;SDS011;31408;45.468;9.124;2024-01-16T09:14:06;45.38;;;26.15;;
45694;SDS011;31408;45.468;9.124;2024-01-16T09:16:31;45.90;;;24.83;;
45694;SDS011;31408;45.468;9.124;2024-01-16T09:18:57;44.80;;;25.58;;
45694;SDS011;31408;45.468;9.124;2024-01-16T09:21:22;50.50;;;25.30;;
45694;SDS011;31408;45.468;9.124;2024-01-16T09:23:47;46.65;;;26.70;;
45694;SDS011;31408;45.468;9.124;2024-01-16T09:26:13;46.97;;;26.35;;
45694;SDS011;31408;45.468;9.124;2024-01-16T09:28:38;44.47;;;23.42;;
45694;SDS011;31408;45.468;9.124;2024-01-16T09:31:05;43.90;;;24.95;;
45694;SDS011;31408;45.468;9.124;2024-01-16T09:33:30;46.20;;;28.25;;
45694;SDS011;31408;45.468;9.124;2024-01-16T09:35:56;39.90;;;24.02;;
45694;SDS011;31408;45.468;9.124;2024-01-16T09:38:21;45.92;;;24.50;;
45694;SDS011;31408;45.468;9.124;2024-01-16T09:40:46;49.38;;;26.73;;
45694;SDS011;31408;45.468;9.124;2024-01-16T09:43:12;44.92;;;25.17;;
45694;SDS011;31408;45.468;9.124;2024-01-16T09:45:38;41.60;;;26.38;;
45694;SDS011;31408;45.468;9.124;2024-01-16T09:48:04;46.08;;;24.65;;
45694;SDS011;31408;45.468;9.124;2024-01-16T09:50:30;45.10;;;26.70;;
45694;SDS011;31408;45.468;9.124;2024-01-16T09:52:56;46.20;;;23.17;;
45694;SDS011;31408;45.468;9.124;2024-01-16T09:55:21;48.92;;;27.15;;
45694;SDS011;31408;45.468;9.124;2024-01-16T09:57:47;46.83;;;25.65;;
45694;SDS011;31408;45.468;9.124;2024-01-16T10:00:14;48.47;;;25.90;;
45694;SDS011;31408;45.468;9.124;2024-01-16T10:02:41;43.72;;;23.88;;
45694;SDS011;31408;45.468;9.124;2024-01-16T10:05:10;43.60;;;24.85;;
45694;SDS011;31408;45.468;9.124;2024-01-16T10:07:36;48.85;;;24.92;;
45694;SDS011;31408;45.468;9.124;2024-01-16T10:10:02;36.42;;;22.73;;
45694;SDS011;31408;45.468;9.124;2024-01-16T10:12:27;45.35;;;24.23;;
45694;SDS011;31408;45.468;9.124;2024-01-16T10:14:53;37.08;;;22.60;;
45694;SDS011;31408;45.468;9.124;2024-01-16T10:17:18;41.92;;;22.45;;
45694;SDS011;31408;45.468;9.124;2024-01-16T10:22:13;49.05;;;22.92;;
45694;SDS011;31408;45.468;9.124;2024-01-16T10:24:44;44.58;;;24.60;;
45694;SDS011;31408;45.468;9.124;2024-01-16T10:27:10;48.83;;;24.95;;
45694;SDS011;31408;45.468;9.124;2024-01-16T10:29:35;43.33;;;21.13;;
45694;SDS011;31408;45.468;9.124;2024-01-16T10:32:01;35.53;;;19.45;;
45694;SDS011;31408;45.468;9.124;2024-01-16T10:34:26;35.47;;;19.42;;
45694;SDS011;31408;45.468;9.124;2024-01-16T10:36:58;38.33;;;18.92;;
45694;SDS011;31408;45.468;9.124;2024-01-16T10:39:24;39.92;;;18.90;;
45694;SDS011;31408;45.468;9.124;2024-01-16T10:41:59;34.80;;;18.40;;
45694;SDS011;31408;45.468;9.124;2024-01-16T10:44:25;38.42;;;19.00;;
45694;SDS011;31408;45.468;9.124;2024-01-16T10:46:50;37.78;;;19.48;;
45694;SDS011;31408;45.468;9.124;2024-01-16T10:49:16;45.67;;;18.98;;
45694;SDS011;31408;45.468;9.124;2024-01-16T10:51:44;36.13;;;18.73;;
45694;SDS011;31408;45.468;9.124;2024-01-16T10:54:12;39.63;;;19.83;;
45694;SDS011;31408;45.468;9.124;2024-01-16T10:56:39;36.58;;;18.85;;
45694;SDS011;31408;45.468;9.124;2024-01-16T10:59:28;37.78;;;18.13;;
45694;SDS011;31408;45.468;9.124;2024-01-16T11:01:58;44.08;;;21.92;;
45694;SDS011;31408;45.468;9.124;2024-01-16T11:04:25;34.33;;;20.27;;
45694;SDS011;31408;45.468;9.124;2024-01-16T11:06:52;36.35;;;19.15;;
45694;SDS011;31408;45.468;9.124;2024-01-16T11:09:18;39.53;;;20.08;;
45694;SDS011;31408;45.468;9.124;2024-01-16T11:11:46;41.58;;;17.95;;
45694;SDS011;31408;45.468;9.124;2024-01-16T11:14:15;37.13;;;20.17;;
45694;SDS011;31408;45.468;9.124;2024-01-16T11:16:41;40.88;;;19.80;;
45694;SDS011;31408;45.468;9.124;2024-01-16T11:19:10;38.50;;;19.50;;
45694;SDS011;31408;45.468;9.124;2024-01-16T11:21:36;33.22;;;19.63;;
45694;SDS011;31408;45.468;9.124;2024-01-16T11:24:03;36.80;;;19.25;;
45694;SDS011;31408;45.468;9.124;2024-01-16T11:28:56;32.67;;;17.20;;
45694;SDS011;31408;45.468;9.124;2024-01-16T11:31:32;32.97;;;17.17;;
45694;SDS011;31408;45.468;9.124;2024-01-16T11:33:58;35.55;;;17.02;;
45694;SDS011;31408;45.468;9.124;2024-01-16T11:39:09;38.75;;;19.63;;
45694;SDS011;31408;45.468;9.124;2024-01-16T11:47:03;33.17;;;16.70;;
45694;SDS011;31408;45.468;9.124;2024-01-16T11:49:29;30.50;;;14.45;;
45694;SDS011;31408;45.468;9.124;2024-01-16T11:51:56;34.05;;;18.05;;
45694;SDS011;31408;45.468;9.124;2024-01-16T11:54:22;36.40;;;18.17;;
45694;SDS011;31408;45.468;9.124;2024-01-16T11:56:54;37.90;;;17.65;;
45694;SDS011;31408;45.468;9.124;2024-01-16T11:59:57;32.88;;;16.73;;
45694;SDS011;31408;45.468;9.124;2024-01-16T12:02:18;32.05;;;15.98;;
45694;SDS011;31408;45.468;9.124;2024-01-16T12:04:51;33.28;;;17.52;;
45694;SDS011;31408;45.468;9.124;2024-01-16T12:07:18;38.22;;;16.55;;
45694;SDS011;31408;45.468;9.124;2024-01-16T12:09:43;37.25;;;17.23;;
45694;SDS011;31408;45.468;9.124;2024-01-16T12:12:08;34.38;;;16.08;;
45694;SDS011;31408;45.468;9.124;2024-01-16T12:14:34;29.50;;;14.52;;
45694;SDS011;31408;45.468;9.124;2024-01-16T12:17:10;34.08;;;15.93;;
45694;SDS011;31408;45.468;9.124;2024-01-16T12:19:36;33.65;;;15.52;;
45694;SDS011;31408;45.468;9.124;2024-01-16T12:22:01;31.05;;;16.50;;
45694;SDS011;31408;45.468;9.124;2024-01-16T12:24:26;34.33;;;18.02;;
45694;SDS011;31408;45.468;9.124;2024-01-16T12:26:52;31.27;;;14.93;;
45694;SDS011;31408;45.468;9.124;2024-01-16T12:29:18;33.10;;;17.35;;
45694;SDS011;31408;45.468;9.124;2024-01-16T12:31:43;31.70;;;15.77;;
45694;SDS011;31408;45.468;9.124;2024-01-16T12:34:09;31.95;;;16.35;;
45694;SDS011;31408;45.468;9.124;2024-01-16T12:36:34;34.90;;;16.20;;
45694;SDS011;31408;45.468;9.124;2024-01-16T12:39:00;38.55;;;16.35;;
45694;SDS011;31408;45.468;9.124;2024-01-16T12:41:34;30.13;;;15.02;;
45694;SDS011;31408;45.468;9.124;2024-01-16T12:44:02;31.75;;;15.52;;
45694;SDS011;31408;45.468;9.124;2024-01-16T12:46:27;34.83;;;16.10;;
45694;SDS011;31408;45.468;9.124;2024-01-16T12:48:52;31.83;;;15.15;;
45694;SDS011;31408;45.468;9.124;2024-01-16T12:51:20;34.90;;;15.55;;
45694;SDS011;31408;45.468;9.124;2024-01-16T12:53:46;30.27;;;15.60;;
45694;SDS011;31408;45.468;9.124;2024-01-16T12:56:11;32.03;;;16.15;;
45694;SDS011;31408;45.468;9.124;2024-01-16T12:58:37;30.10;;;16.15;;
45694;SDS011;31408;45.468;9.124;2024-01-16T13:01:21;34.25;;;14.25;;
45694;SDS011;31408;45.468;9.124;2024-01-16T13:03:47;26.40;;;13.82;;
45694;SDS011;31408;45.468;9.124;2024-01-16T13:06:16;29.25;;;14.70;;
45694;SDS011;31408;45.468;9.124;2024-01-16T13:08:42;29.88;;;16.48;;
45694;SDS011;31408;45.468;9.124;2024-01-16T13:11:07;33.47;;;16.05;;
45694;SDS011;31408;45.468;9.124;2024-01-16T13:13:34;27.95;;;15.32;;
45694;SDS011;31408;45.468;9.124;2024-01-16T13:15:59;32.90;;;15.95;;
45694;SDS011;31408;45.468;9.124;2024-01-16T13:18:26;34.45;;;18.15;;
45694;SDS011;31408;45.468;9.124;2024-01-16T13:20:52;37.20;;;19.38;;
45694;SDS011;31408;45.468;9.124;2024-01-16T13:23:18;35.00;;;18.58;;
45694;SDS011;31408;45.468;9.124;2024-01-16T13:25:47;43.63;;;19.92;;
45694;SDS011;31408;45.468;9.124;2024-01-16T13:28:14;34.03;;;17.27;;
45694;SDS011;31408;45.468;9.124;2024-01-16T13:30:40;31.30;;;16.25;;
45694;SDS011;31408;45.468;9.124;2024-01-16T13:33:06;33.60;;;18.50;;
45694;SDS011;31408;45.468;9.124;2024-01-16T13:35:31;38.10;;;20.02;;
45694;SDS011;31408;45.468;9.124;2024-01-16T13:37:56;39.92;;;20.63;;
45694;SDS011;31408;45.468;9.124;2024-01-16T13:40:22;33.20;;;17.75;;
45694;SDS011;31408;45.468;9.124;2024-01-16T13:42:48;32.15;;;15.85;;
45694;SDS011;31408;45.468;9.124;2024-01-16T13:45:13;29.95;;;13.93;;
45694;SDS011;31408;45.468;9.124;2024-01-16T13:47:39;29.58;;;14.52;;
45694;SDS011;31408;45.468;9.124;2024-01-16T13:50:06;24.48;;;12.68;;
45694;SDS011;31408;45.468;9.124;2024-01-16T13:52:31;30.45;;;14.93;;
45694;SDS011;31408;45.468;9.124;2024-01-16T13:54:56;29.50;;;14.65;;
45694;SDS011;31408;45.468;9.124;2024-01-16T13:57:28;24.98;;;13.95;;
45694;SDS011;31408;45.468;9.124;2024-01-16T13:59:53;30.50;;;14.77;;
45694;SDS011;31408;45.468;9.124;2024-01-16T14:02:19;30.20;;;15.27;;
45694;SDS011;31408;45.468;9.124;2024-01-16T14:04:44;39.95;;;21.50;;
45694;SDS011;31408;45.468;9.124;2024-01-16T14:07:09;40.80;;;23.25;;
45694;SDS011;31408;45.468;9.124;2024-01-16T14:09:35;39.10;;;20.98;;
45694;SDS011;31408;45.468;9.124;2024-01-16T14:12:01;37.67;;;20.67;;
45694;SDS011;31408;45.468;9.124;2024-01-16T14:14:26;39.83;;;22.70;;
45694;SDS011;31408;45.468;9.124;2024-01-16T14:16:51;39.35;;;21.35;;
45694;SDS011;31408;45.468;9.124;2024-01-16T14:19:19;36.95;;;20.83;;
45694;SDS011;31408;45.468;9.124;2024-01-16T14:21:44;35.60;;;18.85;;
45694;SDS011;31408;45.468;9.124;2024-01-16T14:24:09;34.28;;;18.15;;
45694;SDS011;31408;45.468;9.124;2024-01-16T14:26:35;39.50;;;19.63;;
45694;SDS011;31408;45.468;9.124;2024-01-16T14:29:01;39.92;;;20.25;;